Calcasieu PaSS Pilot — WDF3624 — position and weather

sailwx.info

Track history (hours):
 
Tides and Currents Weather Stations Pressure Air Temp Water Temp Dewpoint Dewpoint Depression Visibility Wind Speed Wind Dir Waves Ship Positions

Calcasieu PaSS Pilot

Owner: Calcasieu Pilot #1, Inc., Lake Charles, LA. More information available from US FCC via Universal Licensing System and Coast Guard Vessel Documentation Center.

Last reported at 2018-May-20 08:03 UTC. Time now 2018-May-21 11:18 UTC.
Position N 29°47' W 093°21'.

Length 23 m; draft 3 m.

Type: Pilot. MMSI: 367442120.

Date/timePositionNaut miles runAvg speedWind from/ knotsBaromVisibWave heightAir tempDewpointWater temp
2018-May-20 08:03N 29°47' W 093°21'  
2018-May-17 03:16N 29°36' W 093°17'724.3
2018-May-17 02:57N 29°29' W 093°15'611.7
2018-May-17 02:29N 29°23' W 093°13'2 3.3
2018-May-17 02:00N 29°24' W 093°15'0 0.0
2018-May-17 01:30N 29°24' W 093°15'714.5
2018-May-17 01:00N 29°31' W 093°14'917.6
2018-May-17 00:31N 29°39' W 093°18'815.6
2018-May-16 23:59N 29°47' W 093°21'0 0.1
2018-May-16 23:30N 29°47' W 093°21'23 0.7
2018-May-15 15:59N 29°25' W 093°13'4 8.8
2018-May-15 15:31N 29°21' W 093°14'1325.5
2018-May-15 15:01N 29°33' W 093°17'14 3.7
2018-May-15 11:17N 29°47' W 093°21'722.2
2018-May-15 10:58N 29°40' W 093°19'1624.1
2018-May-15 10:17N 29°24' W 093°13'1 3.7
2018-May-15 10:00N 29°23' W 093°13'1011.9
2018-May-15 09:09N 29°33' W 093°15'212.1
2018-May-15 08:59N 29°34' W 093°16'511.1
2018-May-15 08:30N 29°39' W 093°19'814.5
2018-May-15 07:58N 29°47' W 093°21'1 1.4
2018-May-15 07:30N 29°47' W 093°21'1 0.1
2018-May-14 22:07N 29°46' W 093°21'25 8.4
2018-May-14 19:10N 29°23' W 093°13'212.8
2018-May-14 19:00N 29°21' W 093°13'5 9.7
2018-May-14 18:31N 29°25' W 093°15'1325.5
2018-May-14 17:59N 29°38' W 093°19'916.8
2018-May-14 17:29N 29°46' W 093°21'  
2018-May-12 05:18N 29°48' W 093°21'  
Track history (hours):
 
Tides and Currents Weather Stations Pressure Air Temp Water Temp Dewpoint Dewpoint Depression Visibility Wind Speed Wind Dir Waves Ship Positions

Calcasieu PaSS Pilot

Owner: Calcasieu Pilot #1, Inc., Lake Charles, LA. More information available from US FCC via Universal Licensing System and Coast Guard Vessel Documentation Center.

Last reported at 2018-May-20 08:03 UTC. Time now 2018-May-21 11:18 UTC.
Position N 29°47' W 093°21'.

Length 23 m; draft 3 m.

Type: Pilot. MMSI: 367442120.

Date/timePositionNaut miles runAvg speedWind from/ knotsBaromVisibWave heightAir tempDewpointWater temp
2018-May-20 08:03N 29°47' W 093°21'  
2018-May-17 03:16N 29°36' W 093°17'724.3
2018-May-17 02:57N 29°29' W 093°15'611.7
2018-May-17 02:29N 29°23' W 093°13'2 3.3
2018-May-17 02:00N 29°24' W 093°15'0 0.0
2018-May-17 01:30N 29°24' W 093°15'714.5
2018-May-17 01:00N 29°31' W 093°14'917.6
2018-May-17 00:31N 29°39' W 093°18'815.6
2018-May-16 23:59N 29°47' W 093°21'0 0.1
2018-May-16 23:30N 29°47' W 093°21'23 0.7
2018-May-15 15:59N 29°25' W 093°13'4 8.8
2018-May-15 15:31N 29°21' W 093°14'1325.5
2018-May-15 15:01N 29°33' W 093°17'14 3.7
2018-May-15 11:17N 29°47' W 093°21'722.2
2018-May-15 10:58N 29°40' W 093°19'1624.1
2018-May-15 10:17N 29°24' W 093°13'1 3.7
2018-May-15 10:00N 29°23' W 093°13'1011.9
2018-May-15 09:09N 29°33' W 093°15'212.1
2018-May-15 08:59N 29°34' W 093°16'511.1
2018-May-15 08:30N 29°39' W 093°19'814.5
2018-May-15 07:58N 29°47' W 093°21'1 1.4
2018-May-15 07:30N 29°47' W 093°21'1 0.1
2018-May-14 22:07N 29°46' W 093°21'25 8.4
2018-May-14 19:10N 29°23' W 093°13'212.8
2018-May-14 19:00N 29°21' W 093°13'5 9.7
2018-May-14 18:31N 29°25' W 093°15'1325.5
2018-May-14 17:59N 29°38' W 093°19'916.8
2018-May-14 17:29N 29°46' W 093°21'  
2018-May-12 05:18N 29°48' W 093°21'  

Dump ship's entire track history